Carnival Triumph — C6FN5 — position and weather

sailwx.info

Track history (hours):
 
Tides and Currents Weather Stations Pressure Air Temp Water Temp Dewpoint Dewpoint Depression Visibility Wind Speed Wind Dir Waves Ship Positions

Carnival Triumph

Operator: Carnival Cruise Lines

Last reported at 2018-Apr-20 06:00 UTC. Time now 2018-Apr-20 12:42 UTC.
Position N 28°24' W 089°12'.

Type: Passenger vessel. MMSI: 308045000.

Wind from 020 at 25 knots

Barometer 1016.3 mb
Air temperature 20.0 ° C
Visibility: greater than 10.8 NM
Dewpoint 16.9 ° C
Water temperature 23.5 ° C

Date/timePositionNaut miles runAvg speedWind from/ knotsBaromVisibWave heightAir tempDewpointWater temp
2018-Apr-20 06:00N 28°24' W 089°12'354 6.9 020 / 251016.310.8 20.016.923.5
2018-Apr-18 02:53N 22°30' W 089°19'4315.6
2018-Apr-18 00:07N 21°49' W 089°33'215.5
2018-Apr-17 23:59N 21°47' W 089°34'715.4
2018-Apr-17 23:31N 21°40' W 089°37'815.2
2018-Apr-17 23:00N 21°33' W 089°40'815.1
2018-Apr-17 22:31N 21°26' W 089°42'510.8
2018-Apr-17 22:00N 21°21' W 089°41'0 0.0
2018-Apr-17 21:30N 21°21' W 089°41'0 0.0
2018-Apr-17 20:59N 21°21' W 089°41'0 0.0
2018-Apr-17 20:30N 21°21' W 089°41'0 0.0
2018-Apr-17 20:00N 21°21' W 089°41'0 0.0
2018-Apr-17 19:30N 21°21' W 089°41'0 0.0
2018-Apr-17 19:00N 21°21' W 089°41'0 0.0
2018-Apr-17 18:30N 21°21' W 089°41'0 0.0
2018-Apr-17 18:00N 21°21' W 089°41'0 0.0
2018-Apr-17 17:30N 21°21' W 089°41'0 0.0
2018-Apr-17 17:00N 21°21' W 089°41'0 0.0
2018-Apr-17 16:30N 21°21' W 089°41'0 0.0
2018-Apr-17 16:00N 21°21' W 089°41'0 0.0
2018-Apr-17 15:30N 21°21' W 089°41'0 0.0
2018-Apr-17 15:00N 21°21' W 089°41'0 0.0
2018-Apr-17 14:30N 21°21' W 089°41'0 0.0
2018-Apr-17 14:00N 21°21' W 089°41'0 0.3
2018-Apr-17 13:31N 21°21' W 089°41'5 9.9
2018-Apr-17 13:00N 21°25' W 089°41'714.8
2018-Apr-17 12:30N 21°32' W 089°38'817.0
2018-Apr-17 12:00N 21°39' W 089°33'917.7
2018-Apr-17 11:30N 21°43' W 089°25'4419.3
2018-Apr-17 09:12N 21°54' W 088°38'519.2
2018-Apr-17 08:57N 21°55' W 088°33'1419.2
2018-Apr-17 08:12N 21°58' W 088°18'2310.2
2018-Apr-17 06:00N 21°54' W 087°54'9515.8 020 / 251017.110.8 22.014.023.8
2018-Apr-17 00:00N 20°42' W 086°48'7 8.0 360 / 251015.110.8 24.021.124.0
2018-Apr-16 23:05N 20°38' W 086°55'217.1
2018-Apr-16 22:58N 20°36' W 086°56'716.2
2018-Apr-16 22:30N 20°30' W 086°59'1 2.5
2018-Apr-16 21:58N 20°29' W 086°59'0 0.0
2018-Apr-16 21:25N 20°29' W 086°59'0 0.0
2018-Apr-16 20:58N 20°29' W 086°59'0 0.0
2018-Apr-16 20:28N 20°29' W 086°59'0 0.0
2018-Apr-16 19:55N 20°29' W 086°59'0 0.0
2018-Apr-16 19:25N 20°29' W 086°59'0 0.0
2018-Apr-16 18:58N 20°29' W 086°59'0 0.0
2018-Apr-16 18:22N 20°29' W 086°59'0 0.0
2018-Apr-16 17:58N 20°29' W 086°59'0 0.0
2018-Apr-16 17:25N 20°29' W 086°59'0 0.0
2018-Apr-16 16:58N 20°29' W 086°59'0 0.0
2018-Apr-16 16:28N 20°29' W 086°59'0 0.0
2018-Apr-16 15:58N 20°29' W 086°59'0 0.0
2018-Apr-16 15:28N 20°29' W 086°59'0 0.0
2018-Apr-16 14:58N 20°29' W 086°59'0 0.0
2018-Apr-16 14:28N 20°29' W 086°59'0 0.0
2018-Apr-16 13:58N 20°29' W 086°59'0 0.0
2018-Apr-16 13:28N 20°29' W 086°59'0 0.0
2018-Apr-16 12:55N 20°29' W 086°59'0 0.2
2018-Apr-16 12:30N 20°29' W 086°59'4 8.8
2018-Apr-16 12:00N 20°33' W 086°58'714.4
2018-Apr-16 11:30N 20°39' W 086°54'7513.7
2018-Apr-16 06:00N 21°54' W 086°48'21618.0 010 / 381016.110.8 23.016.925.5
2018-Apr-15 18:00N 25°18' W 088°06'11719.5 350 / 401014.110.8 21.012.824.8
2018-Apr-15 12:00N 27°12' W 088°36'42 1.0 310 / 221009.110.8 17.015.422.0
2018-Apr-13 18:00N 26°54' W 089°18'9619.2 120 / 211010.110.8 25.123.624.6
2018-Apr-13 13:00N 25°18' W 089°18'10815.4 130 / 221011.110.8 26.024.625.0
2018-Apr-13 06:00N 23°30' W 089°18'5018.2 120 / 301011.110.8 25.023.625.6
2018-Apr-13 03:13N 22°40' W 089°18'316.1
2018-Apr-13 03:00N 22°36' W 089°19'816.1
2018-Apr-13 02:30N 22°28' W 089°19'816.3
2018-Apr-13 02:00N 22°20' W 089°21'816.5
2018-Apr-13 01:31N 22°12' W 089°24'816.3
2018-Apr-13 01:00N 22°05' W 089°27'816.2
2018-Apr-13 00:30N 21°57' W 089°30'816.3
2018-Apr-13 00:00N 21°49' W 089°33'816.1
2018-Apr-12 23:31N 21°42' W 089°36'815.8
2018-Apr-12 23:00N 21°35' W 089°39'815.6
2018-Apr-12 22:30N 21°27' W 089°42'612.4
2018-Apr-12 22:00N 21°21' W 089°41'1 1.5
2018-Apr-12 21:31N 21°21' W 089°41'0 0.0
2018-Apr-12 21:00N 21°21' W 089°41'0 0.0
2018-Apr-12 20:30N 21°21' W 089°41'0 0.0
2018-Apr-12 20:00N 21°21' W 089°41'0 0.0
2018-Apr-12 19:30N 21°21' W 089°41'0 0.0
2018-Apr-12 19:00N 21°21' W 089°41'0 0.0
2018-Apr-12 18:30N 21°21' W 089°41'0 0.0
2018-Apr-12 18:00N 21°21' W 089°41'0 0.0
2018-Apr-12 17:30N 21°21' W 089°41'0 0.0
2018-Apr-12 17:00N 21°21' W 089°41'0 0.0
2018-Apr-12 16:30N 21°21' W 089°41'0 0.0
2018-Apr-12 16:00N 21°21' W 089°41'0 0.0
2018-Apr-12 15:30N 21°21' W 089°41'0 0.0
2018-Apr-12 15:00N 21°21' W 089°41'0 0.0
2018-Apr-12 14:30N 21°21' W 089°41'0 0.0
2018-Apr-12 14:00N 21°21' W 089°41'0 0.2
2018-Apr-12 13:30N 21°21' W 089°41'5 9.3
2018-Apr-12 13:00N 21°25' W 089°41'713.2
2018-Apr-12 12:30N 21°31' W 089°39'815.4
2018-Apr-12 12:00N 21°38' W 089°35'815.9
2018-Apr-12 11:30N 21°42' W 089°27'9817.9
2018-Apr-12 06:00N 21°54' W 087°42'8812.2 070 / 201014.110.8 25.023.625.7
2018-Apr-11 22:47N 20°38' W 086°54'519.0
2018-Apr-11 22:30N 20°34' W 086°57'610.9
2018-Apr-11 22:00N 20°29' W 086°59'0 0.0
2018-Apr-11 21:26N 20°29' W 086°59'0 0.0
2018-Apr-11 20:56N 20°29' W 086°59'0 0.0
2018-Apr-11 20:23N 20°29' W 086°59'0 0.0
2018-Apr-11 19:56N 20°29' W 086°59'0 0.0
2018-Apr-11 19:29N 20°29' W 086°59'0 0.0
2018-Apr-11 18:56N 20°29' W 086°59'0 0.0
2018-Apr-11 18:26N 20°29' W 086°59'0 0.0
2018-Apr-11 17:53N 20°29' W 086°59'0 0.0
2018-Apr-11 17:29N 20°29' W 086°59'0 0.0
2018-Apr-11 16:56N 20°29' W 086°59'0 0.0
2018-Apr-11 16:29N 20°29' W 086°59'0 0.0
2018-Apr-11 15:56N 20°29' W 086°59'0 0.0
2018-Apr-11 15:29N 20°29' W 086°59'0 0.0
2018-Apr-11 14:53N 20°29' W 086°59'0 0.0
2018-Apr-11 14:29N 20°29' W 086°59'0 0.0
2018-Apr-11 13:59N 20°29' W 086°59'0 0.0
2018-Apr-11 13:29N 20°29' W 086°59'0 0.0
2018-Apr-11 12:59N 20°29' W 086°59'0 0.4
2018-Apr-11 12:30N 20°29' W 086°59'4 7.8
2018-Apr-11 12:00N 20°33' W 086°58'5 9.9
2018-Apr-11 11:30N 20°37' W 086°55'6111.0
2018-Apr-11 06:00N 21°36' W 086°42'41517.3 130 / 181013.110.8 26.023.225.2
2018-Apr-10 06:00N 28°12' W 089°00'   030 / 221012.110.8 22.020.621.2
Track history (hours):
 
Tides and Currents Weather Stations Pressure Air Temp Water Temp Dewpoint Dewpoint Depression Visibility Wind Speed Wind Dir Waves Ship Positions

Carnival Triumph

Operator: Carnival Cruise Lines

Last reported at 2018-Apr-20 06:00 UTC. Time now 2018-Apr-20 12:42 UTC.
Position N 28°24' W 089°12'.

Type: Passenger vessel. MMSI: 308045000.

Wind from 020 at 25 knots

Barometer 1016.3 mb
Air temperature 20.0 ° C
Visibility: greater than 10.8 NM
Dewpoint 16.9 ° C
Water temperature 23.5 ° C

Date/timePositionNaut miles runAvg speedWind from/ knotsBaromVisibWave heightAir tempDewpointWater temp
2018-Apr-20 06:00N 28°24' W 089°12'354 6.9 020 / 251016.310.8 20.016.923.5
2018-Apr-18 02:53N 22°30' W 089°19'4315.6
2018-Apr-18 00:07N 21°49' W 089°33'215.5
2018-Apr-17 23:59N 21°47' W 089°34'715.4
2018-Apr-17 23:31N 21°40' W 089°37'815.2
2018-Apr-17 23:00N 21°33' W 089°40'815.1
2018-Apr-17 22:31N 21°26' W 089°42'510.8
2018-Apr-17 22:00N 21°21' W 089°41'0 0.0
2018-Apr-17 21:30N 21°21' W 089°41'0 0.0
2018-Apr-17 20:59N 21°21' W 089°41'0 0.0
2018-Apr-17 20:30N 21°21' W 089°41'0 0.0
2018-Apr-17 20:00N 21°21' W 089°41'0 0.0
2018-Apr-17 19:30N 21°21' W 089°41'0 0.0
2018-Apr-17 19:00N 21°21' W 089°41'0 0.0
2018-Apr-17 18:30N 21°21' W 089°41'0 0.0
2018-Apr-17 18:00N 21°21' W 089°41'0 0.0
2018-Apr-17 17:30N 21°21' W 089°41'0 0.0
2018-Apr-17 17:00N 21°21' W 089°41'0 0.0
2018-Apr-17 16:30N 21°21' W 089°41'0 0.0
2018-Apr-17 16:00N 21°21' W 089°41'0 0.0
2018-Apr-17 15:30N 21°21' W 089°41'0 0.0
2018-Apr-17 15:00N 21°21' W 089°41'0 0.0
2018-Apr-17 14:30N 21°21' W 089°41'0 0.0
2018-Apr-17 14:00N 21°21' W 089°41'0 0.3
2018-Apr-17 13:31N 21°21' W 089°41'5 9.9
2018-Apr-17 13:00N 21°25' W 089°41'714.8
2018-Apr-17 12:30N 21°32' W 089°38'817.0
2018-Apr-17 12:00N 21°39' W 089°33'917.7
2018-Apr-17 11:30N 21°43' W 089°25'4419.3
2018-Apr-17 09:12N 21°54' W 088°38'519.2
2018-Apr-17 08:57N 21°55' W 088°33'1419.2
2018-Apr-17 08:12N 21°58' W 088°18'2310.2
2018-Apr-17 06:00N 21°54' W 087°54'9515.8 020 / 251017.110.8 22.014.023.8
2018-Apr-17 00:00N 20°42' W 086°48'7 8.0 360 / 251015.110.8 24.021.124.0
2018-Apr-16 23:05N 20°38' W 086°55'217.1
2018-Apr-16 22:58N 20°36' W 086°56'716.2
2018-Apr-16 22:30N 20°30' W 086°59'1 2.5
2018-Apr-16 21:58N 20°29' W 086°59'0 0.0
2018-Apr-16 21:25N 20°29' W 086°59'0 0.0
2018-Apr-16 20:58N 20°29' W 086°59'0 0.0
2018-Apr-16 20:28N 20°29' W 086°59'0 0.0
2018-Apr-16 19:55N 20°29' W 086°59'0 0.0
2018-Apr-16 19:25N 20°29' W 086°59'0 0.0
2018-Apr-16 18:58N 20°29' W 086°59'0 0.0
2018-Apr-16 18:22N 20°29' W 086°59'0 0.0
2018-Apr-16 17:58N 20°29' W 086°59'0 0.0
2018-Apr-16 17:25N 20°29' W 086°59'0 0.0
2018-Apr-16 16:58N 20°29' W 086°59'0 0.0
2018-Apr-16 16:28N 20°29' W 086°59'0 0.0
2018-Apr-16 15:58N 20°29' W 086°59'0 0.0
2018-Apr-16 15:28N 20°29' W 086°59'0 0.0
2018-Apr-16 14:58N 20°29' W 086°59'0 0.0
2018-Apr-16 14:28N 20°29' W 086°59'0 0.0
2018-Apr-16 13:58N 20°29' W 086°59'0 0.0
2018-Apr-16 13:28N 20°29' W 086°59'0 0.0
2018-Apr-16 12:55N 20°29' W 086°59'0 0.2
2018-Apr-16 12:30N 20°29' W 086°59'4 8.8
2018-Apr-16 12:00N 20°33' W 086°58'714.4
2018-Apr-16 11:30N 20°39' W 086°54'7513.7
2018-Apr-16 06:00N 21°54' W 086°48'21618.0 010 / 381016.110.8 23.016.925.5
2018-Apr-15 18:00N 25°18' W 088°06'11719.5 350 / 401014.110.8 21.012.824.8
2018-Apr-15 12:00N 27°12' W 088°36'42 1.0 310 / 221009.110.8 17.015.422.0
2018-Apr-13 18:00N 26°54' W 089°18'9619.2 120 / 211010.110.8 25.123.624.6
2018-Apr-13 13:00N 25°18' W 089°18'10815.4 130 / 221011.110.8 26.024.625.0
2018-Apr-13 06:00N 23°30' W 089°18'5018.2 120 / 301011.110.8 25.023.625.6
2018-Apr-13 03:13N 22°40' W 089°18'316.1
2018-Apr-13 03:00N 22°36' W 089°19'816.1
2018-Apr-13 02:30N 22°28' W 089°19'816.3
2018-Apr-13 02:00N 22°20' W 089°21'816.5
2018-Apr-13 01:31N 22°12' W 089°24'816.3
2018-Apr-13 01:00N 22°05' W 089°27'816.2
2018-Apr-13 00:30N 21°57' W 089°30'816.3
2018-Apr-13 00:00N 21°49' W 089°33'816.1
2018-Apr-12 23:31N 21°42' W 089°36'815.8
2018-Apr-12 23:00N 21°35' W 089°39'815.6
2018-Apr-12 22:30N 21°27' W 089°42'612.4
2018-Apr-12 22:00N 21°21' W 089°41'1 1.5
2018-Apr-12 21:31N 21°21' W 089°41'0 0.0
2018-Apr-12 21:00N 21°21' W 089°41'0 0.0
2018-Apr-12 20:30N 21°21' W 089°41'0 0.0
2018-Apr-12 20:00N 21°21' W 089°41'0 0.0
2018-Apr-12 19:30N 21°21' W 089°41'0 0.0
2018-Apr-12 19:00N 21°21' W 089°41'0 0.0
2018-Apr-12 18:30N 21°21' W 089°41'0 0.0
2018-Apr-12 18:00N 21°21' W 089°41'0 0.0
2018-Apr-12 17:30N 21°21' W 089°41'0 0.0
2018-Apr-12 17:00N 21°21' W 089°41'0 0.0
2018-Apr-12 16:30N 21°21' W 089°41'0 0.0
2018-Apr-12 16:00N 21°21' W 089°41'0 0.0
2018-Apr-12 15:30N 21°21' W 089°41'0 0.0
2018-Apr-12 15:00N 21°21' W 089°41'0 0.0
2018-Apr-12 14:30N 21°21' W 089°41'0 0.0
2018-Apr-12 14:00N 21°21' W 089°41'0 0.2
2018-Apr-12 13:30N 21°21' W 089°41'5 9.3
2018-Apr-12 13:00N 21°25' W 089°41'713.2
2018-Apr-12 12:30N 21°31' W 089°39'815.4
2018-Apr-12 12:00N 21°38' W 089°35'815.9
2018-Apr-12 11:30N 21°42' W 089°27'9817.9
2018-Apr-12 06:00N 21°54' W 087°42'8812.2 070 / 201014.110.8 25.023.625.7
2018-Apr-11 22:47N 20°38' W 086°54'519.0
2018-Apr-11 22:30N 20°34' W 086°57'610.9
2018-Apr-11 22:00N 20°29' W 086°59'0 0.0
2018-Apr-11 21:26N 20°29' W 086°59'0 0.0
2018-Apr-11 20:56N 20°29' W 086°59'0 0.0
2018-Apr-11 20:23N 20°29' W 086°59'0 0.0
2018-Apr-11 19:56N 20°29' W 086°59'0 0.0
2018-Apr-11 19:29N 20°29' W 086°59'0 0.0
2018-Apr-11 18:56N 20°29' W 086°59'0 0.0
2018-Apr-11 18:26N 20°29' W 086°59'0 0.0
2018-Apr-11 17:53N 20°29' W 086°59'0 0.0
2018-Apr-11 17:29N 20°29' W 086°59'0 0.0
2018-Apr-11 16:56N 20°29' W 086°59'0 0.0
2018-Apr-11 16:29N 20°29' W 086°59'0 0.0
2018-Apr-11 15:56N 20°29' W 086°59'0 0.0
2018-Apr-11 15:29N 20°29' W 086°59'0 0.0
2018-Apr-11 14:53N 20°29' W 086°59'0 0.0
2018-Apr-11 14:29N 20°29' W 086°59'0 0.0
2018-Apr-11 13:59N 20°29' W 086°59'0 0.0
2018-Apr-11 13:29N 20°29' W 086°59'0 0.0
2018-Apr-11 12:59N 20°29' W 086°59'0 0.4
2018-Apr-11 12:30N 20°29' W 086°59'4 7.8
2018-Apr-11 12:00N 20°33' W 086°58'5 9.9
2018-Apr-11 11:30N 20°37' W 086°55'6111.0
2018-Apr-11 06:00N 21°36' W 086°42'41517.3 130 / 181013.110.8 26.023.225.2
2018-Apr-10 06:00N 28°12' W 089°00'   030 / 221012.110.8 22.020.621.2

Dump ship's entire track history